createdAt,value
2017-07-22T00:00:05.898Z,0
2017-07-22T00:01:07.795Z,0
2017-07-22T00:02:09.690Z,0
2017-07-22T00:03:11.559Z,0
2017-07-22T00:04:25.701Z,0
2017-07-22T00:05:27.595Z,0
2017-07-22T00:06:29.463Z,0
2017-07-22T00:07:31.337Z,0
2017-07-22T00:08:33.151Z,0
2017-07-22T00:09:34.971Z,0
2017-07-22T00:10:36.852Z,0
2017-07-22T00:11:38.744Z,0
2017-07-22T00:12:40.616Z,0
2017-07-22T00:13:54.781Z,0
2017-07-22T00:14:56.654Z,0
2017-07-22T00:15:58.553Z,0
2017-07-22T00:17:00.450Z,0
2017-07-22T00:18:02.280Z,0
2017-07-22T00:19:04.111Z,0
2017-07-22T00:20:06.008Z,0
2017-07-22T00:21:07.899Z,0
2017-07-22T00:22:09.771Z,0
2017-07-22T00:23:23.909Z,0
2017-07-22T00:24:25.781Z,0
2017-07-22T00:25:27.679Z,0
2017-07-22T00:26:29.572Z,0
2017-07-22T00:27:31.403Z,0
2017-07-22T00:28:33.211Z,0
2017-07-22T00:29:35.102Z,0
2017-07-22T00:30:37.006Z,0
2017-07-22T00:31:38.873Z,0
2017-07-22T00:32:53.017Z,0
2017-07-22T00:33:54.888Z,0
2017-07-22T00:34:56.757Z,0
2017-07-22T00:35:58.652Z,0
2017-07-22T00:37:00.463Z,0
2017-07-22T00:38:02.273Z,0
2017-07-22T00:39:04.163Z,0
2017-07-22T00:40:06.038Z,0
2017-07-22T00:41:07.933Z,0
2017-07-22T00:42:22.101Z,0
2017-07-22T00:43:24.002Z,0
2017-07-22T00:44:25.865Z,0
2017-07-22T00:45:27.763Z,0
2017-07-22T00:46:29.591Z,0
2017-07-22T00:47:31.396Z,0
2017-07-22T00:48:33.272Z,0
2017-07-22T00:49:35.170Z,0
2017-07-22T00:50:37.061Z,0
2017-07-22T00:51:51.205Z,0
2017-07-22T00:52:53.081Z,0
2017-07-22T00:53:54.973Z,0
2017-07-22T00:54:56.849Z,0
2017-07-22T00:55:58.683Z,0
2017-07-22T00:57:00.512Z,0
2017-07-22T00:58:02.403Z,0
2017-07-22T00:59:04.279Z,0
2017-07-22T01:00:06.175Z,0
2017-07-22T01:01:27.776Z,0
2017-07-22T01:02:29.643Z,0
2017-07-22T01:03:31.517Z,0
2017-07-22T01:04:33.406Z,0
2017-07-22T01:05:35.216Z,0
2017-07-22T01:06:37.042Z,0
2017-07-22T01:07:38.910Z,0
2017-07-22T01:08:40.801Z,0
2017-07-22T01:09:42.669Z,0
2017-07-22T01:10:56.791Z,0
2017-07-22T01:11:58.618Z,0
2017-07-22T01:13:00.425Z,0
2017-07-22T01:14:02.248Z,0
2017-07-22T01:15:04.119Z,0
2017-07-22T01:16:06.012Z,0
2017-07-22T01:17:07.854Z,0
2017-07-22T01:18:09.680Z,0
2017-07-22T01:19:11.492Z,0
2017-07-22T01:20:25.714Z,0
2017-07-22T01:21:27.589Z,0
2017-07-22T01:22:29.457Z,0
2017-07-22T01:23:31.326Z,0
2017-07-22T01:24:33.152Z,0
2017-07-22T01:25:34.961Z,0
2017-07-22T01:26:36.851Z,0
2017-07-22T01:27:38.719Z,0
2017-07-22T01:28:40.614Z,0
2017-07-22T01:29:54.780Z,0
2017-07-22T01:30:56.673Z,0
2017-07-22T01:31:58.538Z,0
2017-07-22T01:33:00.414Z,0
2017-07-22T01:34:02.242Z,0
2017-07-22T01:35:04.070Z,0
2017-07-22T01:36:05.937Z,0
2017-07-22T01:37:07.824Z,0
2017-07-22T01:38:09.698Z,0
2017-07-22T01:39:23.861Z,0
2017-07-22T01:40:25.730Z,0
2017-07-22T01:41:27.595Z,0
2017-07-22T01:42:29.464Z,0
2017-07-22T01:43:31.266Z,0
2017-07-22T01:44:33.076Z,0
2017-07-22T01:45:34.967Z,0
2017-07-22T01:46:36.859Z,0
2017-07-22T01:47:38.756Z,0
2017-07-22T01:48:52.902Z,0
2017-07-22T01:49:54.728Z,0
2017-07-22T01:50:56.598Z,0
2017-07-22T01:51:58.489Z,0
2017-07-22T01:53:00.354Z,0
2017-07-22T01:54:02.180Z,0
2017-07-22T01:55:03.980Z,0
2017-07-22T01:56:05.847Z,0
2017-07-22T01:57:07.721Z,0
2017-07-22T01:58:21.918Z,0
2017-07-22T01:59:23.789Z,0
2017-07-22T02:00:25.663Z,0
2017-07-22T02:01:27.528Z,0
2017-07-22T02:02:29.356Z,0
2017-07-22T02:03:31.181Z,0
2017-07-22T02:04:33.053Z,0
2017-07-22T02:05:34.950Z,0
2017-07-22T02:06:36.843Z,0
2017-07-22T02:07:51.009Z,0
2017-07-22T02:08:52.904Z,0
2017-07-22T02:09:54.794Z,0
2017-07-22T02:10:56.671Z,0
2017-07-22T02:11:58.497Z,0
2017-07-22T02:13:00.304Z,0
2017-07-22T02:14:02.199Z,0
2017-07-22T02:15:04.091Z,0
2017-07-22T02:16:05.959Z,0
2017-07-22T02:17:20.111Z,0
2017-07-22T02:18:21.970Z,0
2017-07-22T02:19:23.841Z,0
2017-07-22T02:20:25.732Z,0
2017-07-22T02:21:27.542Z,0
2017-07-22T02:22:29.367Z,0
2017-07-22T02:23:31.242Z,0
2017-07-22T02:24:33.128Z,0
2017-07-22T02:25:34.999Z,0
2017-07-22T02:26:49.170Z,0
2017-07-22T02:27:51.058Z,0
2017-07-22T02:28:52.931Z,0
2017-07-22T02:29:54.800Z,0
2017-07-22T02:30:56.604Z,0
2017-07-22T02:31:58.410Z,0
2017-07-22T02:33:00.279Z,0
2017-07-22T02:34:02.151Z,0
2017-07-22T02:35:04.043Z,0
2017-07-22T02:36:18.180Z,0
2017-07-22T02:37:20.061Z,0
2017-07-22T02:38:21.914Z,0
2017-07-22T02:39:23.786Z,0
2017-07-22T02:40:25.616Z,0
2017-07-22T02:41:27.449Z,0
2017-07-22T02:42:29.336Z,0
2017-07-22T02:43:31.206Z,0
2017-07-22T02:44:33.079Z,0
2017-07-22T02:45:47.247Z,0
2017-07-22T02:46:49.141Z,0
2017-07-22T02:47:51.016Z,0
2017-07-22T02:48:52.905Z,0
2017-07-22T02:49:54.715Z,0
2017-07-22T02:50:56.516Z,0
2017-07-22T02:51:58.386Z,0
2017-07-22T02:53:00.262Z,0
2017-07-22T02:54:02.152Z,0
2017-07-22T02:55:16.293Z,0
2017-07-22T02:56:18.171Z,0
2017-07-22T02:57:20.066Z,0
2017-07-22T02:58:21.956Z,0
2017-07-22T02:59:23.761Z,0
2017-07-22T03:00:25.563Z,0
2017-07-22T03:01:27.439Z,0
2017-07-22T03:02:29.335Z,0
2017-07-22T03:03:31.230Z,5
2017-07-22T03:04:45.375Z,5
2017-07-22T03:05:47.270Z,5
2017-07-22T03:06:49.145Z,5
2017-07-22T03:07:51.039Z,5
2017-07-22T03:08:52.843Z,5
2017-07-22T03:09:54.650Z,5
2017-07-22T03:10:56.517Z,5
2017-07-22T03:11:58.395Z,10
2017-07-22T03:13:00.266Z,10
2017-07-22T03:14:14.435Z,10
2017-07-22T03:15:16.331Z,10
2017-07-22T03:16:18.212Z,10
2017-07-22T03:17:20.101Z,15
2017-07-22T03:18:21.909Z,15
2017-07-22T03:19:23.717Z,15
2017-07-22T03:20:25.592Z,15
2017-07-22T03:21:27.492Z,20
2017-07-22T03:22:29.366Z,20
2017-07-22T03:23:43.530Z,25
2017-07-22T03:24:45.398Z,30
2017-07-22T03:25:47.270Z,30
2017-07-22T03:26:49.147Z,30
2017-07-22T03:27:50.972Z,40
2017-07-22T03:28:52.780Z,40
2017-07-22T03:29:54.654Z,45
2017-07-22T03:30:56.551Z,50
2017-07-22T03:31:58.419Z,50
2017-07-22T03:33:12.569Z,55
2017-07-22T03:34:14.465Z,60
2017-07-22T03:35:16.337Z,70
2017-07-22T03:36:18.219Z,70
2017-07-22T03:37:20.017Z,80
2017-07-22T03:38:21.833Z,80
2017-07-22T03:39:23.727Z,85
2017-07-22T03:40:25.598Z,90
2017-07-22T03:41:27.470Z,95
2017-07-22T03:42:41.619Z,105
2017-07-22T03:43:43.514Z,110
2017-07-22T03:44:45.395Z,120
2017-07-22T03:45:47.288Z,120
2017-07-22T03:46:49.105Z,110
2017-07-22T03:47:50.913Z,100
2017-07-22T03:48:52.790Z,100
2017-07-22T03:49:54.686Z,100
2017-07-22T03:50:56.563Z,105
2017-07-22T03:52:10.706Z,110
2017-07-22T03:53:12.586Z,115
2017-07-22T03:54:14.488Z,120
2017-07-22T03:55:16.384Z,125
2017-07-22T03:56:18.200Z,125
2017-07-22T03:57:20.027Z,135
2017-07-22T03:58:21.902Z,135
2017-07-22T03:59:23.780Z,135
2017-07-22T04:00:25.659Z,135
2017-07-22T04:01:39.805Z,140
2017-07-22T04:02:41.682Z,140
2017-07-22T04:03:43.560Z,140
2017-07-22T04:04:45.438Z,145
2017-07-22T04:05:47.245Z,145
2017-07-22T04:06:49.059Z,145
2017-07-22T04:07:50.955Z,150
2017-07-22T04:08:52.838Z,155
2017-07-22T04:09:54.717Z,155
2017-07-22T04:11:08.894Z,160
2017-07-22T04:12:10.799Z,165
2017-07-22T04:13:12.696Z,170
2017-07-22T04:14:14.576Z,170
2017-07-22T04:15:16.389Z,170
2017-07-22T04:16:18.229Z,175
2017-07-22T04:17:20.127Z,180
2017-07-22T04:18:22.029Z,180
2017-07-22T04:19:23.930Z,185
2017-07-22T04:20:38.106Z,190
2017-07-22T04:21:40.004Z,195
2017-07-22T04:22:41.886Z,195
2017-07-22T04:23:43.780Z,200
2017-07-22T04:24:45.594Z,205
2017-07-22T04:25:47.410Z,210
2017-07-22T04:26:49.282Z,210
2017-07-22T04:27:51.160Z,215
2017-07-22T04:28:53.063Z,220
2017-07-22T04:30:07.235Z,230
2017-07-22T04:31:09.115Z,235
2017-07-22T04:32:11.020Z,235
2017-07-22T04:33:12.916Z,235
2017-07-22T04:34:14.736Z,240
2017-07-22T04:35:16.565Z,245
2017-07-22T04:36:18.450Z,250
2017-07-22T04:37:20.324Z,255
2017-07-22T04:38:22.206Z,255
2017-07-22T04:39:36.401Z,250
2017-07-22T04:40:38.282Z,250
2017-07-22T04:41:40.182Z,255
2017-07-22T04:42:42.058Z,255
2017-07-22T04:43:43.874Z,255
2017-07-22T04:44:45.689Z,260
2017-07-22T04:45:47.574Z,260
2017-07-22T04:46:49.450Z,265
2017-07-22T04:47:51.338Z,270
2017-07-22T04:49:05.506Z,280
2017-07-22T04:50:07.390Z,300
2017-07-22T04:51:09.297Z,305
2017-07-22T04:52:11.196Z,310
2017-07-22T04:53:13.010Z,310
2017-07-22T04:54:14.831Z,310
2017-07-22T04:55:16.731Z,315
2017-07-22T04:56:18.612Z,315
2017-07-22T04:57:20.494Z,315
2017-07-22T04:58:34.675Z,320
2017-07-22T04:59:36.574Z,320
2017-07-22T05:00:38.462Z,330
2017-07-22T05:01:40.364Z,335
2017-07-22T05:02:42.199Z,330
2017-07-22T05:03:44.014Z,325
2017-07-22T05:04:45.894Z,325
2017-07-22T05:05:47.781Z,320
2017-07-22T05:06:49.686Z,325
2017-07-22T05:08:03.865Z,320
2017-07-22T05:09:05.772Z,310
2017-07-22T05:10:07.680Z,300
2017-07-22T05:11:09.581Z,295
2017-07-22T05:12:11.401Z,295
2017-07-22T05:13:13.240Z,295
2017-07-22T05:14:15.104Z,295
2017-07-22T05:15:16.998Z,295
2017-07-22T05:16:18.877Z,300
2017-07-22T05:17:33.052Z,295
2017-07-22T05:18:34.933Z,290
2017-07-22T05:19:36.837Z,285
2017-07-22T05:20:38.722Z,265
2017-07-22T05:21:40.560Z,270
2017-07-22T05:22:42.401Z,280
2017-07-22T05:23:44.237Z,270
2017-07-22T05:24:46.057Z,275
2017-07-22T05:25:47.897Z,260
2017-07-22T05:27:02.074Z,275
2017-07-22T05:28:03.954Z,275
2017-07-22T05:29:05.857Z,270
2017-07-22T05:30:07.736Z,275
2017-07-22T05:31:09.556Z,270
2017-07-22T05:32:11.370Z,265
2017-07-22T05:33:13.248Z,265
2017-07-22T05:34:15.151Z,260
2017-07-22T05:35:17.054Z,255
2017-07-22T05:36:31.208Z,255
2017-07-22T05:37:33.108Z,250
2017-07-22T05:38:34.987Z,250
2017-07-22T05:39:36.865Z,245
2017-07-22T05:40:38.677Z,240
2017-07-22T05:41:40.493Z,240
2017-07-22T05:42:42.393Z,240
2017-07-22T05:43:44.266Z,240
2017-07-22T05:44:46.145Z,240
2017-07-22T05:46:00.318Z,240
2017-07-22T05:47:02.220Z,240
2017-07-22T05:48:04.122Z,240
2017-07-22T05:49:05.992Z,240
2017-07-22T05:50:07.807Z,240
2017-07-22T05:51:09.626Z,245
2017-07-22T05:52:11.508Z,250
2017-07-22T05:53:13.379Z,255
2017-07-22T05:54:15.260Z,260
2017-07-22T05:55:29.485Z,260
2017-07-22T05:56:31.381Z,265
2017-07-22T05:57:33.260Z,265
2017-07-22T05:58:35.131Z,270
2017-07-22T05:59:36.950Z,270
2017-07-22T06:00:38.764Z,275
2017-07-22T06:01:40.661Z,285
2017-07-22T06:02:42.538Z,295
2017-07-22T06:03:44.419Z,305
2017-07-22T06:04:58.594Z,310
2017-07-22T06:06:00.473Z,315
2017-07-22T06:07:02.379Z,315
2017-07-22T06:08:04.254Z,315
2017-07-22T06:09:06.093Z,310
2017-07-22T06:10:07.927Z,310
2017-07-22T06:11:09.806Z,310
2017-07-22T06:12:11.690Z,305
2017-07-22T06:13:13.592Z,305
2017-07-22T06:14:27.763Z,300
2017-07-22T06:15:29.642Z,300
2017-07-22T06:16:31.517Z,300
2017-07-22T06:17:33.416Z,290
2017-07-22T06:18:35.234Z,290
2017-07-22T06:19:37.071Z,295
2017-07-22T06:20:38.951Z,290
2017-07-22T06:21:40.827Z,280
2017-07-22T06:22:42.730Z,270
2017-07-22T06:23:56.903Z,270
2017-07-22T06:24:58.779Z,265
2017-07-22T06:26:00.658Z,260
2017-07-22T06:27:02.554Z,255
2017-07-22T06:28:04.372Z,250
2017-07-22T06:29:06.211Z,250
2017-07-22T06:30:08.084Z,245
2017-07-22T06:31:09.989Z,245
2017-07-22T06:32:11.890Z,245
2017-07-22T06:33:26.067Z,240
2017-07-22T06:34:27.945Z,235
2017-07-22T06:35:29.843Z,235
2017-07-22T06:36:31.721Z,235
2017-07-22T06:37:33.533Z,230
2017-07-22T06:38:35.351Z,230
2017-07-22T06:39:37.545Z,230
2017-07-22T06:40:39.426Z,230
2017-07-22T06:41:41.324Z,230
2017-07-22T06:42:55.496Z,230
2017-07-22T06:43:57.378Z,230
2017-07-22T06:44:59.274Z,230
2017-07-22T06:46:01.156Z,230
2017-07-22T06:47:03.016Z,230
2017-07-22T06:48:04.829Z,230
2017-07-22T06:49:06.709Z,230
2017-07-22T06:50:08.588Z,230
2017-07-22T06:51:10.485Z,230
2017-07-22T06:52:24.640Z,230
2017-07-22T06:53:26.542Z,225
2017-07-22T06:54:28.416Z,230
2017-07-22T06:55:30.294Z,230
2017-07-22T06:56:32.108Z,230
2017-07-22T06:57:33.948Z,235
2017-07-22T06:58:35.842Z,235
2017-07-22T06:59:37.722Z,240
2017-07-22T07:00:39.600Z,240
2017-07-22T07:01:53.746Z,235
2017-07-22T07:02:55.614Z,235
2017-07-22T07:03:57.487Z,240
2017-07-22T07:04:59.362Z,240
2017-07-22T07:06:01.178Z,245
2017-07-22T07:07:03.012Z,250
2017-07-22T07:08:04.892Z,255
2017-07-22T07:09:06.795Z,260
2017-07-22T07:10:08.693Z,265
2017-07-22T07:11:22.867Z,265
2017-07-22T07:12:24.739Z,260
2017-07-22T07:13:26.615Z,265
2017-07-22T07:14:28.516Z,270
2017-07-22T07:15:30.350Z,275
2017-07-22T07:16:32.162Z,275
2017-07-22T07:17:34.044Z,285
2017-07-22T07:18:35.945Z,305
2017-07-22T07:19:37.842Z,320
2017-07-22T07:20:52.006Z,320
2017-07-22T07:21:53.903Z,315
2017-07-22T07:22:55.782Z,310
2017-07-22T07:23:57.652Z,310
2017-07-22T07:24:59.465Z,310
2017-07-22T07:26:01.282Z,310
2017-07-22T07:27:03.155Z,310
2017-07-22T07:28:05.037Z,310
2017-07-22T07:29:06.912Z,315
2017-07-22T07:30:21.069Z,315
2017-07-22T07:31:22.968Z,325
2017-07-22T07:32:24.851Z,340
2017-07-22T07:33:26.753Z,355
2017-07-22T07:34:28.595Z,365
2017-07-22T07:35:30.428Z,380
2017-07-22T07:36:32.301Z,395
2017-07-22T07:37:34.185Z,390
2017-07-22T07:38:36.089Z,400
2017-07-22T07:39:50.266Z,405
2017-07-22T07:40:52.166Z,410
2017-07-22T07:41:54.053Z,415
2017-07-22T07:42:55.950Z,405
2017-07-22T07:43:57.776Z,405
2017-07-22T07:44:59.586Z,405
2017-07-22T07:46:01.466Z,425
2017-07-22T07:47:03.346Z,415
2017-07-22T07:48:05.226Z,405
2017-07-22T07:49:19.409Z,395
2017-07-22T07:50:21.312Z,390
2017-07-22T07:51:23.194Z,390
2017-07-22T07:52:25.066Z,390
2017-07-22T07:53:26.884Z,385
2017-07-22T07:54:28.725Z,395
2017-07-22T07:55:30.622Z,405
2017-07-22T07:56:32.504Z,405
2017-07-22T07:57:34.389Z,405
2017-07-22T07:58:48.569Z,400
2017-07-22T07:59:50.474Z,395
2017-07-22T08:00:52.375Z,390
2017-07-22T08:01:54.279Z,380
2017-07-22T08:02:56.100Z,375
2017-07-22T08:03:57.935Z,365
2017-07-22T08:04:59.820Z,355
2017-07-22T08:06:01.722Z,355
2017-07-22T08:07:03.597Z,355
2017-07-22T08:08:17.754Z,370
2017-07-22T08:09:19.632Z,375
2017-07-22T08:10:21.512Z,380
2017-07-22T08:11:23.420Z,380
2017-07-22T08:12:25.239Z,390
2017-07-22T08:13:27.059Z,380
2017-07-22T08:14:28.962Z,375
2017-07-22T08:15:30.863Z,375
2017-07-22T08:16:32.743Z,385
2017-07-22T08:17:46.924Z,385
2017-07-22T08:18:48.828Z,370
2017-07-22T08:19:50.730Z,385
2017-07-22T08:20:52.607Z,385
2017-07-22T08:21:54.426Z,380
2017-07-22T08:22:56.272Z,375
2017-07-22T08:23:58.142Z,365
2017-07-22T08:25:00.029Z,355
2017-07-22T08:26:01.936Z,350
2017-07-22T08:27:16.112Z,345
2017-07-22T08:28:17.992Z,340
2017-07-22T08:29:19.891Z,330
2017-07-22T08:30:21.769Z,320
2017-07-22T08:31:23.590Z,320
2017-07-22T08:32:25.415Z,315
2017-07-22T08:33:27.302Z,305
2017-07-22T08:34:29.184Z,310
2017-07-22T08:35:31.093Z,305
2017-07-22T08:36:45.264Z,300
2017-07-22T08:37:47.148Z,290
2017-07-22T08:38:49.056Z,295
2017-07-22T08:39:50.956Z,290
2017-07-22T08:40:52.773Z,285
2017-07-22T08:41:54.616Z,285
2017-07-22T08:42:56.520Z,280
2017-07-22T08:43:58.391Z,275
2017-07-22T08:45:00.272Z,275
2017-07-22T08:46:14.428Z,275
2017-07-22T08:47:16.331Z,270
2017-07-22T08:48:18.237Z,265
2017-07-22T08:49:20.117Z,260
2017-07-22T08:50:21.963Z,265
2017-07-22T08:51:23.797Z,260
2017-07-22T08:52:25.671Z,260
2017-07-22T08:53:27.556Z,255
2017-07-22T08:54:29.460Z,250
2017-07-22T08:55:43.632Z,255
2017-07-22T08:56:45.510Z,255
2017-07-22T08:57:47.389Z,255
2017-07-22T08:58:49.290Z,255
2017-07-22T08:59:51.131Z,255
2017-07-22T09:00:52.969Z,255
2017-07-22T09:01:54.844Z,255
2017-07-22T09:02:56.717Z,250
2017-07-22T09:03:58.600Z,250
2017-07-22T09:05:12.779Z,255
2017-07-22T09:06:14.650Z,255
2017-07-22T09:07:16.531Z,250
2017-07-22T09:08:18.404Z,250
2017-07-22T09:09:20.213Z,250
2017-07-22T09:10:22.028Z,250
2017-07-22T09:11:23.908Z,250
2017-07-22T09:12:25.810Z,245
2017-07-22T09:13:27.708Z,250
2017-07-22T09:14:41.864Z,250
2017-07-22T09:15:43.767Z,245
2017-07-22T09:16:45.668Z,250
2017-07-22T09:17:47.538Z,245
2017-07-22T09:18:49.369Z,240
2017-07-22T09:19:51.172Z,240
2017-07-22T09:20:53.047Z,240
2017-07-22T09:21:54.930Z,240
2017-07-22T09:22:56.834Z,240
2017-07-22T09:24:11.008Z,245
2017-07-22T09:25:12.909Z,240
2017-07-22T09:26:14.811Z,240
2017-07-22T09:27:16.708Z,240
2017-07-22T09:28:18.525Z,240
2017-07-22T09:29:20.335Z,240
2017-07-22T09:30:22.216Z,240
2017-07-22T09:31:24.091Z,240
2017-07-22T09:32:25.995Z,240
2017-07-22T09:33:40.173Z,235
2017-07-22T09:34:42.071Z,235
2017-07-22T09:35:43.951Z,235
2017-07-22T09:36:45.834Z,240
2017-07-22T09:37:47.643Z,235
2017-07-22T09:38:49.459Z,240
2017-07-22T09:39:51.360Z,235
2017-07-22T09:40:53.264Z,240
2017-07-22T09:41:55.163Z,245
2017-07-22T09:43:09.342Z,245
2017-07-22T09:44:11.220Z,240
2017-07-22T09:45:13.095Z,240
2017-07-22T09:46:14.968Z,240
2017-07-22T09:47:16.787Z,245
2017-07-22T09:48:18.598Z,245
2017-07-22T09:49:20.473Z,245
2017-07-22T09:50:22.360Z,245
2017-07-22T09:51:24.258Z,245
2017-07-22T09:52:38.487Z,245
2017-07-22T09:53:40.390Z,245
2017-07-22T09:54:42.269Z,245
2017-07-22T09:55:44.162Z,250
2017-07-22T09:56:45.985Z,250
2017-07-22T09:57:47.822Z,250
2017-07-22T09:58:49.720Z,255
2017-07-22T09:59:51.597Z,255
2017-07-22T10:00:53.496Z,255
2017-07-22T10:02:07.648Z,255
2017-07-22T10:03:09.525Z,255
2017-07-22T10:04:11.398Z,260
2017-07-22T10:05:13.277Z,265
2017-07-22T10:06:15.100Z,265
2017-07-22T10:07:16.936Z,275
2017-07-22T10:08:18.828Z,275
2017-07-22T10:09:20.710Z,275
2017-07-22T10:10:22.610Z,280
2017-07-22T10:11:36.764Z,275
2017-07-22T10:12:38.661Z,275
2017-07-22T10:13:40.541Z,275
2017-07-22T10:14:42.415Z,280
2017-07-22T10:15:44.230Z,285
2017-07-22T10:16:46.050Z,285
2017-07-22T10:17:47.918Z,285
2017-07-22T10:18:49.804Z,290
2017-07-22T10:19:51.700Z,290
2017-07-22T10:21:05.848Z,295
2017-07-22T10:22:07.727Z,295
2017-07-22T10:23:09.627Z,305
2017-07-22T10:24:11.531Z,305
2017-07-22T10:25:13.331Z,290
2017-07-22T10:26:15.150Z,295
2017-07-22T10:27:17.054Z,310
2017-07-22T10:28:18.962Z,315
2017-07-22T10:29:20.860Z,325
2017-07-22T10:30:35.013Z,345
2017-07-22T10:31:36.890Z,330
2017-07-22T10:32:38.766Z,330
2017-07-22T10:33:40.646Z,340
2017-07-22T10:34:42.464Z,345
2017-07-22T10:35:44.281Z,355
2017-07-22T10:36:46.164Z,375
2017-07-22T10:37:48.067Z,385
2017-07-22T10:38:49.970Z,365
2017-07-22T10:40:04.135Z,355
2017-07-22T10:41:06.024Z,335
2017-07-22T10:42:07.907Z,330
2017-07-22T10:43:09.810Z,330
2017-07-22T10:44:11.653Z,325
2017-07-22T10:45:13.472Z,330
2017-07-22T10:46:15.352Z,320
2017-07-22T10:47:17.235Z,340
2017-07-22T10:48:19.134Z,345
2017-07-22T10:49:33.297Z,345
2017-07-22T10:50:35.204Z,350
2017-07-22T10:51:37.106Z,350
2017-07-22T10:52:39.009Z,360
2017-07-22T10:53:40.830Z,360
2017-07-22T10:54:42.648Z,350
2017-07-22T10:55:44.553Z,345
2017-07-22T10:56:46.454Z,355
2017-07-22T10:57:48.332Z,350
2017-07-22T10:59:02.493Z,350
2017-07-22T11:00:04.397Z,345
2017-07-22T11:01:06.298Z,350
2017-07-22T11:02:08.177Z,350
2017-07-22T11:03:09.996Z,355
2017-07-22T11:04:11.818Z,350
2017-07-22T11:05:13.696Z,345
2017-07-22T11:06:15.572Z,350
2017-07-22T11:07:17.455Z,340
2017-07-22T11:08:31.632Z,340
2017-07-22T11:09:33.515Z,335
2017-07-22T11:10:35.423Z,330
2017-07-22T11:11:37.301Z,325
2017-07-22T11:12:39.153Z,330
2017-07-22T11:13:40.985Z,345
2017-07-22T11:14:42.860Z,345
2017-07-22T11:15:44.750Z,350
2017-07-22T11:16:46.631Z,355
2017-07-22T11:18:00.783Z,350
2017-07-22T11:19:02.664Z,360
2017-07-22T11:20:04.539Z,375
2017-07-22T11:21:06.421Z,385
2017-07-22T11:22:08.259Z,385
2017-07-22T11:23:10.081Z,390
2017-07-22T11:24:11.961Z,390
2017-07-22T11:25:13.847Z,385
2017-07-22T11:26:15.747Z,370
2017-07-22T11:27:29.911Z,375
2017-07-22T11:28:31.814Z,385
2017-07-22T11:29:33.717Z,385
2017-07-22T11:30:35.598Z,395
2017-07-22T11:31:37.422Z,395
2017-07-22T11:32:39.260Z,395
2017-07-22T11:33:41.144Z,400
2017-07-22T11:34:43.047Z,405
2017-07-22T11:35:44.949Z,410
2017-07-22T11:36:59.135Z,395
2017-07-22T11:38:01.038Z,400
2017-07-22T11:39:02.943Z,410
2017-07-22T11:40:04.848Z,420
2017-07-22T11:41:06.695Z,415
2017-07-22T11:42:08.512Z,405
2017-07-22T11:43:10.387Z,425
2017-07-22T11:44:12.265Z,435
2017-07-22T11:45:14.146Z,435
2017-07-22T11:46:28.312Z,425
2017-07-22T11:47:30.215Z,420
2017-07-22T11:48:32.119Z,420
2017-07-22T11:49:34.023Z,410
2017-07-22T11:50:35.845Z,415
2017-07-22T11:51:37.687Z,410
2017-07-22T11:52:39.570Z,395
2017-07-22T11:53:41.477Z,395
2017-07-22T11:54:43.382Z,390
2017-07-22T11:55:57.541Z,375
2017-07-22T11:56:59.423Z,360
2017-07-22T11:58:01.328Z,345
2017-07-22T11:59:03.242Z,335
2017-07-22T12:00:05.070Z,335
2017-07-22T12:01:06.896Z,340
2017-07-22T12:02:08.782Z,355
2017-07-22T12:03:10.700Z,370
2017-07-22T12:04:12.614Z,390
2017-07-22T12:05:26.786Z,415
2017-07-22T12:06:28.704Z,425
2017-07-22T12:07:30.592Z,435
2017-07-22T12:08:32.480Z,445
2017-07-22T12:09:34.309Z,450
2017-07-22T12:10:36.126Z,445
2017-07-22T12:11:38.024Z,455
2017-07-22T12:12:39.907Z,460
2017-07-22T12:13:41.791Z,465
2017-07-22T12:14:55.972Z,480
2017-07-22T12:15:57.850Z,485
2017-07-22T12:16:59.738Z,495
2017-07-22T12:18:01.615Z,490
2017-07-22T12:19:03.438Z,485
2017-07-22T12:20:05.278Z,475
2017-07-22T12:21:07.159Z,470
2017-07-22T12:22:09.049Z,460
2017-07-22T12:23:10.955Z,455
2017-07-22T12:24:25.134Z,455
2017-07-22T12:25:27.016Z,450
2017-07-22T12:26:28.897Z,440
2017-07-22T12:27:30.773Z,435
2017-07-22T12:28:32.595Z,430
2017-07-22T12:29:34.421Z,430
2017-07-22T12:30:36.316Z,425
2017-07-22T12:31:38.200Z,425
2017-07-22T12:32:40.080Z,425
2017-07-22T12:33:54.244Z,420
2017-07-22T12:34:56.150Z,410
2017-07-22T12:35:58.037Z,420
2017-07-22T12:36:59.934Z,415
2017-07-22T12:38:01.756Z,420
2017-07-22T12:39:03.580Z,410
2017-07-22T12:40:05.486Z,405
2017-07-22T12:41:07.390Z,400
2017-07-22T12:42:09.271Z,395
2017-07-22T12:43:23.435Z,400
2017-07-22T12:44:25.319Z,390
2017-07-22T12:45:27.202Z,390
2017-07-22T12:46:29.109Z,385
2017-07-22T12:47:30.959Z,375
2017-07-22T12:48:32.794Z,385
2017-07-22T12:49:34.675Z,385
2017-07-22T12:50:36.562Z,385
2017-07-22T12:51:38.482Z,380
2017-07-22T12:52:52.649Z,380
2017-07-22T12:53:54.529Z,380
2017-07-22T12:54:56.415Z,380
2017-07-22T12:55:58.321Z,385
2017-07-22T12:57:00.168Z,390
2017-07-22T12:58:02.008Z,385
2017-07-22T12:59:03.888Z,385
2017-07-22T13:00:05.773Z,390
2017-07-22T13:01:07.660Z,385
2017-07-22T13:02:21.841Z,400
2017-07-22T13:03:23.723Z,400
2017-07-22T13:04:25.605Z,395
2017-07-22T13:05:27.486Z,390
2017-07-22T13:06:29.328Z,380
2017-07-22T13:07:31.152Z,375
2017-07-22T13:08:33.033Z,370
2017-07-22T13:09:34.949Z,360
2017-07-22T13:10:36.848Z,360
2017-07-22T13:11:51.029Z,355
2017-07-22T13:12:52.907Z,360
2017-07-22T13:13:54.787Z,350
2017-07-22T13:14:56.670Z,355
2017-07-22T13:15:58.514Z,360
2017-07-22T13:17:00.329Z,365
2017-07-22T13:18:02.208Z,365
2017-07-22T13:19:04.094Z,365
2017-07-22T13:20:05.970Z,370
2017-07-22T13:21:20.136Z,375
2017-07-22T13:22:22.039Z,380
2017-07-22T13:23:23.923Z,385
2017-07-22T13:24:25.806Z,380
2017-07-22T13:25:27.644Z,370
2017-07-22T13:26:29.467Z,370
2017-07-22T13:27:31.359Z,365
2017-07-22T13:28:33.262Z,365
2017-07-22T13:29:35.143Z,365
2017-07-22T13:30:49.327Z,365
2017-07-22T13:31:51.235Z,365
2017-07-22T13:32:53.134Z,365
2017-07-22T13:33:55.021Z,370
2017-07-22T13:34:56.865Z,375
2017-07-22T13:35:58.708Z,380
2017-07-22T13:37:00.598Z,390
2017-07-22T13:38:02.469Z,395
2017-07-22T13:39:04.353Z,400
2017-07-22T13:40:18.515Z,400
2017-07-22T13:41:20.398Z,395
2017-07-22T13:42:22.309Z,380
2017-07-22T13:43:24.211Z,345
2017-07-22T13:44:26.030Z,320
2017-07-22T13:45:27.858Z,300
2017-07-22T13:46:29.738Z,275
2017-07-22T13:47:31.642Z,260
2017-07-22T13:48:33.521Z,250
2017-07-22T13:49:47.679Z,235
2017-07-22T13:50:49.558Z,225
2017-07-22T13:51:51.457Z,210
2017-07-22T13:52:53.340Z,205
2017-07-22T13:53:55.158Z,190
2017-07-22T13:54:56.998Z,175
2017-07-22T13:55:58.878Z,165
2017-07-22T13:57:00.758Z,150
2017-07-22T13:58:02.664Z,135
2017-07-22T13:59:16.845Z,125
2017-07-22T14:00:18.730Z,120
2017-07-22T14:01:20.631Z,110
2017-07-22T14:02:22.532Z,105
2017-07-22T14:03:24.376Z,105
2017-07-22T14:04:26.218Z,100
2017-07-22T14:05:28.088Z,95
2017-07-22T14:06:29.965Z,95
2017-07-22T14:07:31.842Z,90
2017-07-22T14:08:46.054Z,85
2017-07-22T14:09:47.934Z,85
2017-07-22T14:10:49.832Z,80
2017-07-22T14:11:51.715Z,80
2017-07-22T14:12:53.701Z,75
2017-07-22T14:13:55.615Z,70
2017-07-22T14:14:57.511Z,70
2017-07-22T14:15:59.390Z,70
2017-07-22T14:17:01.293Z,70
2017-07-22T14:18:15.521Z,65
2017-07-22T14:19:17.400Z,65
2017-07-22T14:20:19.271Z,65
2017-07-22T14:21:21.151Z,65
2017-07-22T14:22:22.985Z,65
2017-07-22T14:23:24.802Z,60
2017-07-22T14:24:26.682Z,60
2017-07-22T14:25:28.582Z,60
2017-07-22T14:26:30.459Z,55
2017-07-22T14:27:44.632Z,55
2017-07-22T14:28:46.509Z,50
2017-07-22T14:29:48.384Z,45
2017-07-22T14:30:50.255Z,45
2017-07-22T14:31:52.077Z,45
2017-07-22T14:32:53.889Z,40
2017-07-22T14:33:55.771Z,35
2017-07-22T14:34:57.647Z,30
2017-07-22T14:35:59.528Z,25
2017-07-22T14:37:13.778Z,20
2017-07-22T14:38:15.670Z,15
2017-07-22T14:39:17.590Z,15
2017-07-22T14:40:19.465Z,10
2017-07-22T14:41:21.304Z,10
2017-07-22T14:42:23.138Z,10
2017-07-22T14:43:25.069Z,10
2017-07-22T14:44:27.008Z,10
2017-07-22T14:45:28.881Z,10